sensor_id;sensor_type;location;lat;lon;timestamp;P1;durP1;ratioP1;P2;durP2;ratioP2
65706;SDS011;52423;43.512;5.220;2023-12-20T00:01:40;10.40;;;8.25;;
65706;SDS011;52423;43.512;5.220;2023-12-20T00:04:06;11.57;;;8.93;;
65706;SDS011;52423;43.512;5.220;2023-12-20T00:06:31;11.00;;;9.85;;
65706;SDS011;52423;43.512;5.220;2023-12-20T00:08:56;10.77;;;9.10;;
65706;SDS011;52423;43.512;5.220;2023-12-20T00:11:23;10.93;;;8.35;;
65706;SDS011;52423;43.512;5.220;2023-12-20T00:13:48;11.27;;;9.45;;
65706;SDS011;52423;43.512;5.220;2023-12-20T00:16:14;12.15;;;8.95;;
65706;SDS011;52423;43.512;5.220;2023-12-20T00:18:39;11.52;;;7.70;;
65706;SDS011;52423;43.512;5.220;2023-12-20T00:21:05;15.25;;;10.30;;
65706;SDS011;52423;43.512;5.220;2023-12-20T00:23:30;10.48;;;8.25;;
65706;SDS011;52423;43.512;5.220;2023-12-20T00:25:55;11.77;;;9.50;;
65706;SDS011;52423;43.512;5.220;2023-12-20T00:28:21;8.93;;;7.55;;
65706;SDS011;52423;43.512;5.220;2023-12-20T00:30:46;9.70;;;7.32;;
65706;SDS011;52423;43.512;5.220;2023-12-20T00:33:12;10.30;;;8.23;;
65706;SDS011;52423;43.512;5.220;2023-12-20T00:35:37;9.95;;;7.57;;
65706;SDS011;52423;43.512;5.220;2023-12-20T00:38:03;10.45;;;6.65;;
65706;SDS011;52423;43.512;5.220;2023-12-20T00:40:30;9.82;;;7.00;;
65706;SDS011;52423;43.512;5.220;2023-12-20T00:42:55;9.65;;;6.47;;
65706;SDS011;52423;43.512;5.220;2023-12-20T00:45:20;10.23;;;6.45;;
65706;SDS011;52423;43.512;5.220;2023-12-20T00:47:46;9.55;;;6.97;;
65706;SDS011;52423;43.512;5.220;2023-12-20T00:50:11;11.73;;;7.55;;
65706;SDS011;52423;43.512;5.220;2023-12-20T00:52:37;9.38;;;6.03;;
65706;SDS011;52423;43.512;5.220;2023-12-20T00:55:02;9.60;;;6.95;;
65706;SDS011;52423;43.512;5.220;2023-12-20T00:57:29;8.52;;;6.72;;
65706;SDS011;52423;43.512;5.220;2023-12-20T00:59:54;10.27;;;7.28;;
65706;SDS011;52423;43.512;5.220;2023-12-20T01:02:19;8.27;;;6.13;;
65706;SDS011;52423;43.512;5.220;2023-12-20T01:04:45;5.82;;;4.07;;
65706;SDS011;52423;43.512;5.220;2023-12-20T01:07:10;5.82;;;4.47;;
65706;SDS011;52423;43.512;5.220;2023-12-20T01:09:35;5.70;;;4.25;;
65706;SDS011;52423;43.512;5.220;2023-12-20T01:12:01;5.82;;;4.13;;
65706;SDS011;52423;43.512;5.220;2023-12-20T01:14:26;5.60;;;3.90;;
65706;SDS011;52423;43.512;5.220;2023-12-20T01:16:52;4.97;;;2.80;;
65706;SDS011;52423;43.512;5.220;2023-12-20T01:19:17;5.45;;;3.85;;
65706;SDS011;52423;43.512;5.220;2023-12-20T01:21:42;3.75;;;3.20;;
65706;SDS011;52423;43.512;5.220;2023-12-20T01:24:08;6.32;;;3.38;;
65706;SDS011;52423;43.512;5.220;2023-12-20T01:26:34;4.65;;;3.30;;
65706;SDS011;52423;43.512;5.220;2023-12-20T01:28:59;3.08;;;2.03;;
65706;SDS011;52423;43.512;5.220;2023-12-20T01:31:24;4.72;;;2.85;;
65706;SDS011;52423;43.512;5.220;2023-12-20T01:33:52;5.43;;;3.03;;
65706;SDS011;52423;43.512;5.220;2023-12-20T01:36:17;3.78;;;2.72;;
65706;SDS011;52423;43.512;5.220;2023-12-20T01:38:43;3.17;;;2.25;;
65706;SDS011;52423;43.512;5.220;2023-12-20T01:41:08;4.90;;;2.80;;
65706;SDS011;52423;43.512;5.220;2023-12-20T01:43:34;3.90;;;3.55;;
65706;SDS011;52423;43.512;5.220;2023-12-20T01:45:59;4.63;;;2.90;;
65706;SDS011;52423;43.512;5.220;2023-12-20T01:48:25;3.78;;;2.63;;
65706;SDS011;52423;43.512;5.220;2023-12-20T01:50:52;3.95;;;3.50;;
65706;SDS011;52423;43.512;5.220;2023-12-20T01:53:20;4.47;;;3.03;;
65706;SDS011;52423;43.512;5.220;2023-12-20T01:55:48;4.28;;;2.25;;
65706;SDS011;52423;43.512;5.220;2023-12-20T01:58:15;4.22;;;2.35;;
65706;SDS011;52423;43.512;5.220;2023-12-20T02:00:42;4.10;;;3.63;;
65706;SDS011;52423;43.512;5.220;2023-12-20T02:03:07;4.22;;;2.55;;
65706;SDS011;52423;43.512;5.220;2023-12-20T02:05:34;2.58;;;1.40;;
65706;SDS011;52423;43.512;5.220;2023-12-20T02:08:00;2.67;;;1.75;;
65706;SDS011;52423;43.512;5.220;2023-12-20T02:10:26;2.85;;;2.03;;
65706;SDS011;52423;43.512;5.220;2023-12-20T02:12:52;3.78;;;1.65;;
65706;SDS011;52423;43.512;5.220;2023-12-20T02:15:17;1.90;;;1.77;;
65706;SDS011;52423;43.512;5.220;2023-12-20T02:17:43;3.38;;;2.33;;
65706;SDS011;52423;43.512;5.220;2023-12-20T02:20:09;3.55;;;2.67;;
65706;SDS011;52423;43.512;5.220;2023-12-20T02:22:34;3.20;;;1.80;;
65706;SDS011;52423;43.512;5.220;2023-12-20T02:25:00;3.83;;;2.47;;
65706;SDS011;52423;43.512;5.220;2023-12-20T02:27:25;2.80;;;2.13;;
65706;SDS011;52423;43.512;5.220;2023-12-20T02:29:52;3.33;;;2.45;;
65706;SDS011;52423;43.512;5.220;2023-12-20T02:32:18;3.22;;;2.03;;
65706;SDS011;52423;43.512;5.220;2023-12-20T02:34:43;3.35;;;2.85;;
65706;SDS011;52423;43.512;5.220;2023-12-20T02:37:09;2.78;;;1.88;;
65706;SDS011;52423;43.512;5.220;2023-12-20T02:39:34;4.40;;;1.65;;
65706;SDS011;52423;43.512;5.220;2023-12-20T02:42:00;3.20;;;1.90;;
65706;SDS011;52423;43.512;5.220;2023-12-20T02:44:25;3.53;;;1.95;;
65706;SDS011;52423;43.512;5.220;2023-12-20T02:46:50;3.97;;;1.90;;
65706;SDS011;52423;43.512;5.220;2023-12-20T02:49:16;2.75;;;2.35;;
65706;SDS011;52423;43.512;5.220;2023-12-20T02:51:41;3.88;;;2.67;;
65706;SDS011;52423;43.512;5.220;2023-12-20T02:54:07;3.15;;;1.90;;
65706;SDS011;52423;43.512;5.220;2023-12-20T02:56:32;2.88;;;2.53;;
65706;SDS011;52423;43.512;5.220;2023-12-20T02:58:58;3.78;;;2.00;;
65706;SDS011;52423;43.512;5.220;2023-12-20T03:01:23;2.72;;;1.80;;
65706;SDS011;52423;43.512;5.220;2023-12-20T03:03:49;3.90;;;2.05;;
65706;SDS011;52423;43.512;5.220;2023-12-20T03:06:18;3.38;;;1.88;;
65706;SDS011;52423;43.512;5.220;2023-12-20T03:11:09;2.78;;;2.38;;
65706;SDS011;52423;43.512;5.220;2023-12-20T03:13:35;2.42;;;2.22;;
65706;SDS011;52423;43.512;5.220;2023-12-20T03:16:00;3.65;;;2.80;;
65706;SDS011;52423;43.512;5.220;2023-12-20T03:18:25;3.38;;;2.22;;
65706;SDS011;52423;43.512;5.220;2023-12-20T03:20:53;4.15;;;2.40;;
65706;SDS011;52423;43.512;5.220;2023-12-20T03:23:18;2.42;;;1.92;;
65706;SDS011;52423;43.512;5.220;2023-12-20T03:25:43;3.75;;;2.47;;
65706;SDS011;52423;43.512;5.220;2023-12-20T03:28:09;2.85;;;1.98;;
65706;SDS011;52423;43.512;5.220;2023-12-20T03:30:34;3.67;;;3.10;;
65706;SDS011;52423;43.512;5.220;2023-12-20T03:33:00;3.17;;;2.13;;
65706;SDS011;52423;43.512;5.220;2023-12-20T03:35:25;2.53;;;1.98;;
65706;SDS011;52423;43.512;5.220;2023-12-20T03:37:50;3.30;;;2.55;;
65706;SDS011;52423;43.512;5.220;2023-12-20T03:40:16;3.47;;;3.17;;
65706;SDS011;52423;43.512;5.220;2023-12-20T03:42:41;2.45;;;2.13;;
65706;SDS011;52423;43.512;5.220;2023-12-20T03:45:07;3.08;;;2.47;;
65706;SDS011;52423;43.512;5.220;2023-12-20T03:47:32;2.63;;;2.25;;
65706;SDS011;52423;43.512;5.220;2023-12-20T03:49:58;2.85;;;2.65;;
65706;SDS011;52423;43.512;5.220;2023-12-20T03:52:23;2.72;;;1.90;;
65706;SDS011;52423;43.512;5.220;2023-12-20T03:54:49;3.38;;;2.67;;
65706;SDS011;52423;43.512;5.220;2023-12-20T03:57:14;3.75;;;2.60;;
65706;SDS011;52423;43.512;5.220;2023-12-20T03:59:39;3.08;;;2.03;;
65706;SDS011;52423;43.512;5.220;2023-12-20T04:02:05;2.92;;;2.17;;
65706;SDS011;52423;43.512;5.220;2023-12-20T04:04:31;2.58;;;2.10;;
65706;SDS011;52423;43.512;5.220;2023-12-20T04:06:56;2.35;;;1.85;;
65706;SDS011;52423;43.512;5.220;2023-12-20T04:09:22;3.10;;;2.25;;
65706;SDS011;52423;43.512;5.220;2023-12-20T04:11:47;3.00;;;2.58;;
65706;SDS011;52423;43.512;5.220;2023-12-20T04:14:12;4.82;;;2.35;;
65706;SDS011;52423;43.512;5.220;2023-12-20T04:16:38;2.42;;;1.98;;
65706;SDS011;52423;43.512;5.220;2023-12-20T04:19:04;3.00;;;1.67;;
65706;SDS011;52423;43.512;5.220;2023-12-20T04:21:30;3.95;;;2.03;;
65706;SDS011;52423;43.512;5.220;2023-12-20T04:23:55;2.75;;;1.65;;
65706;SDS011;52423;43.512;5.220;2023-12-20T04:26:21;2.50;;;1.48;;
65706;SDS011;52423;43.512;5.220;2023-12-20T04:28:46;2.15;;;1.75;;
65706;SDS011;52423;43.512;5.220;2023-12-20T04:31:11;3.40;;;1.45;;
65706;SDS011;52423;43.512;5.220;2023-12-20T04:33:37;2.50;;;1.83;;
65706;SDS011;52423;43.512;5.220;2023-12-20T04:36:02;3.47;;;1.60;;
65706;SDS011;52423;43.512;5.220;2023-12-20T04:38:29;2.30;;;2.00;;
65706;SDS011;52423;43.512;5.220;2023-12-20T04:40:54;3.28;;;2.25;;
65706;SDS011;52423;43.512;5.220;2023-12-20T04:43:20;2.72;;;2.13;;
65706;SDS011;52423;43.512;5.220;2023-12-20T04:45:45;3.80;;;1.63;;
65706;SDS011;52423;43.512;5.220;2023-12-20T04:48:11;2.03;;;1.38;;
65706;SDS011;52423;43.512;5.220;2023-12-20T04:50:37;2.10;;;1.20;;
65706;SDS011;52423;43.512;5.220;2023-12-20T04:53:02;2.30;;;1.30;;
65706;SDS011;52423;43.512;5.220;2023-12-20T04:55:28;3.15;;;1.88;;
65706;SDS011;52423;43.512;5.220;2023-12-20T04:57:53;2.95;;;1.88;;
65706;SDS011;52423;43.512;5.220;2023-12-20T05:00:19;2.10;;;1.60;;
65706;SDS011;52423;43.512;5.220;2023-12-20T05:02:45;2.67;;;1.67;;
65706;SDS011;52423;43.512;5.220;2023-12-20T05:05:10;2.70;;;1.85;;
65706;SDS011;52423;43.512;5.220;2023-12-20T05:07:36;1.85;;;1.42;;
65706;SDS011;52423;43.512;5.220;2023-12-20T05:10:01;2.17;;;1.27;;
65706;SDS011;52423;43.512;5.220;2023-12-20T05:12:29;1.80;;;1.30;;
65706;SDS011;52423;43.512;5.220;2023-12-20T05:14:55;1.75;;;1.17;;
65706;SDS011;52423;43.512;5.220;2023-12-20T05:17:20;2.42;;;0.98;;
65706;SDS011;52423;43.512;5.220;2023-12-20T05:19:45;2.30;;;1.35;;
65706;SDS011;52423;43.512;5.220;2023-12-20T05:22:11;1.73;;;1.63;;
65706;SDS011;52423;43.512;5.220;2023-12-20T05:24:36;1.98;;;1.30;;
65706;SDS011;52423;43.512;5.220;2023-12-20T05:27:02;1.30;;;1.02;;
65706;SDS011;52423;43.512;5.220;2023-12-20T05:29:27;1.60;;;1.30;;
65706;SDS011;52423;43.512;5.220;2023-12-20T05:31:52;1.33;;;1.00;;
65706;SDS011;52423;43.512;5.220;2023-12-20T05:34:18;0.98;;;0.88;;
65706;SDS011;52423;43.512;5.220;2023-12-20T05:36:44;2.08;;;1.98;;
65706;SDS011;52423;43.512;5.220;2023-12-20T05:39:09;1.20;;;0.68;;
65706;SDS011;52423;43.512;5.220;2023-12-20T05:41:34;2.33;;;2.10;;
65706;SDS011;52423;43.512;5.220;2023-12-20T05:44:00;1.88;;;1.23;;
65706;SDS011;52423;43.512;5.220;2023-12-20T05:46:25;1.13;;;1.02;;
65706;SDS011;52423;43.512;5.220;2023-12-20T05:48:51;1.08;;;1.00;;
65706;SDS011;52423;43.512;5.220;2023-12-20T05:51:16;1.60;;;0.43;;
65706;SDS011;52423;43.512;5.220;2023-12-20T05:53:42;1.55;;;0.60;;
65706;SDS011;52423;43.512;5.220;2023-12-20T05:56:09;1.38;;;1.27;;
65706;SDS011;52423;43.512;5.220;2023-12-20T05:58:34;1.00;;;0.57;;
65706;SDS011;52423;43.512;5.220;2023-12-20T06:01:00;1.05;;;1.05;;
65706;SDS011;52423;43.512;5.220;2023-12-20T06:03:25;0.73;;;0.60;;
65706;SDS011;52423;43.512;5.220;2023-12-20T06:05:50;0.93;;;0.75;;
65706;SDS011;52423;43.512;5.220;2023-12-20T06:08:16;0.60;;;0.40;;
65706;SDS011;52423;43.512;5.220;2023-12-20T06:10:41;1.67;;;0.35;;
65706;SDS011;52423;43.512;5.220;2023-12-20T06:13:06;1.05;;;0.40;;
65706;SDS011;52423;43.512;5.220;2023-12-20T06:15:32;0.60;;;0.30;;
65706;SDS011;52423;43.512;5.220;2023-12-20T06:17:58;2.25;;;1.55;;
65706;SDS011;52423;43.512;5.220;2023-12-20T06:20:23;1.50;;;0.70;;
65706;SDS011;52423;43.512;5.220;2023-12-20T06:22:49;0.90;;;0.43;;
65706;SDS011;52423;43.512;5.220;2023-12-20T06:25:15;1.00;;;0.50;;
65706;SDS011;52423;43.512;5.220;2023-12-20T06:27:41;0.60;;;0.50;;
65706;SDS011;52423;43.512;5.220;2023-12-20T06:30:06;0.65;;;0.43;;
65706;SDS011;52423;43.512;5.220;2023-12-20T06:32:34;2.05;;;0.63;;
65706;SDS011;52423;43.512;5.220;2023-12-20T06:35:00;1.23;;;1.08;;
65706;SDS011;52423;43.512;5.220;2023-12-20T06:37:26;0.70;;;0.17;;
65706;SDS011;52423;43.512;5.220;2023-12-20T06:39:51;0.95;;;0.95;;
65706;SDS011;52423;43.512;5.220;2023-12-20T06:42:17;0.80;;;0.40;;
65706;SDS011;52423;43.512;5.220;2023-12-20T06:44:42;0.75;;;0.30;;
65706;SDS011;52423;43.512;5.220;2023-12-20T06:47:07;0.68;;;0.68;;
65706;SDS011;52423;43.512;5.220;2023-12-20T06:49:33;1.95;;;0.65;;
65706;SDS011;52423;43.512;5.220;2023-12-20T06:51:58;2.15;;;1.35;;
65706;SDS011;52423;43.512;5.220;2023-12-20T06:54:23;0.60;;;0.30;;
65706;SDS011;52423;43.512;5.220;2023-12-20T06:56:49;1.13;;;0.35;;
65706;SDS011;52423;43.512;5.220;2023-12-20T06:59:14;1.27;;;0.68;;
65706;SDS011;52423;43.512;5.220;2023-12-20T07:01:40;1.05;;;0.88;;
65706;SDS011;52423;43.512;5.220;2023-12-20T07:04:06;1.23;;;0.32;;
65706;SDS011;52423;43.512;5.220;2023-12-20T07:06:31;1.38;;;1.27;;
65706;SDS011;52423;43.512;5.220;2023-12-20T07:08:57;0.93;;;0.35;;
65706;SDS011;52423;43.512;5.220;2023-12-20T07:11:22;0.40;;;0.30;;
65706;SDS011;52423;43.512;5.220;2023-12-20T07:13:48;1.70;;;0.82;;
65706;SDS011;52423;43.512;5.220;2023-12-20T07:16:14;3.67;;;0.95;;
65706;SDS011;52423;43.512;5.220;2023-12-20T07:18:40;2.78;;;1.70;;
65706;SDS011;52423;43.512;5.220;2023-12-20T07:21:05;5.47;;;1.77;;
65706;SDS011;52423;43.512;5.220;2023-12-20T07:23:32;2.70;;;1.95;;
65706;SDS011;52423;43.512;5.220;2023-12-20T07:25:58;2.38;;;1.50;;
65706;SDS011;52423;43.512;5.220;2023-12-20T07:28:23;1.75;;;1.65;;
65706;SDS011;52423;43.512;5.220;2023-12-20T07:30:49;2.53;;;0.90;;
65706;SDS011;52423;43.512;5.220;2023-12-20T07:33:15;0.75;;;0.60;;
65706;SDS011;52423;43.512;5.220;2023-12-20T07:35:40;1.63;;;1.52;;
65706;SDS011;52423;43.512;5.220;2023-12-20T07:38:06;3.55;;;1.00;;
65706;SDS011;52423;43.512;5.220;2023-12-20T07:40:31;2.97;;;0.82;;
65706;SDS011;52423;43.512;5.220;2023-12-20T07:42:57;2.60;;;1.10;;
65706;SDS011;52423;43.512;5.220;2023-12-20T07:45:23;3.78;;;1.80;;
65706;SDS011;52423;43.512;5.220;2023-12-20T07:47:48;3.20;;;1.52;;
65706;SDS011;52423;43.512;5.220;2023-12-20T07:50:15;4.13;;;1.48;;
65706;SDS011;52423;43.512;5.220;2023-12-20T07:52:40;3.22;;;1.58;;
65706;SDS011;52423;43.512;5.220;2023-12-20T07:55:06;1.88;;;1.00;;
65706;SDS011;52423;43.512;5.220;2023-12-20T07:57:32;1.25;;;0.80;;
65706;SDS011;52423;43.512;5.220;2023-12-20T07:59:57;1.08;;;0.82;;
65706;SDS011;52423;43.512;5.220;2023-12-20T08:02:23;1.38;;;0.77;;
65706;SDS011;52423;43.512;5.220;2023-12-20T08:04:48;1.30;;;1.20;;
65706;SDS011;52423;43.512;5.220;2023-12-20T08:07:13;2.03;;;0.90;;
65706;SDS011;52423;43.512;5.220;2023-12-20T08:09:39;1.52;;;0.60;;
65706;SDS011;52423;43.512;5.220;2023-12-20T08:12:05;0.82;;;0.57;;
65706;SDS011;52423;43.512;5.220;2023-12-20T08:14:30;0.65;;;0.65;;
65706;SDS011;52423;43.512;5.220;2023-12-20T08:16:56;1.10;;;1.00;;
65706;SDS011;52423;43.512;5.220;2023-12-20T08:19:22;0.85;;;0.85;;
65706;SDS011;52423;43.512;5.220;2023-12-20T08:21:47;0.95;;;0.95;;
65706;SDS011;52423;43.512;5.220;2023-12-20T08:24:13;1.23;;;1.23;;
65706;SDS011;52423;43.512;5.220;2023-12-20T08:26:38;1.42;;;1.17;;
65706;SDS011;52423;43.512;5.220;2023-12-20T08:29:03;1.13;;;0.75;;
65706;SDS011;52423;43.512;5.220;2023-12-20T08:31:29;1.55;;;0.57;;
65706;SDS011;52423;43.512;5.220;2023-12-20T08:33:54;0.85;;;0.85;;
65706;SDS011;52423;43.512;5.220;2023-12-20T08:36:21;0.60;;;0.60;;
65706;SDS011;52423;43.512;5.220;2023-12-20T08:38:48;1.35;;;0.43;;
65706;SDS011;52423;43.512;5.220;2023-12-20T08:41:14;1.27;;;0.50;;
65706;SDS011;52423;43.512;5.220;2023-12-20T08:43:39;0.73;;;0.50;;
65706;SDS011;52423;43.512;5.220;2023-12-20T08:46:07;0.55;;;0.45;;
65706;SDS011;52423;43.512;5.220;2023-12-20T08:48:34;1.23;;;0.68;;
65706;SDS011;52423;43.512;5.220;2023-12-20T08:51:00;1.00;;;0.82;;
65706;SDS011;52423;43.512;5.220;2023-12-20T08:53:25;2.33;;;0.82;;
65706;SDS011;52423;43.512;5.220;2023-12-20T08:55:53;0.70;;;0.22;;
65706;SDS011;52423;43.512;5.220;2023-12-20T08:58:18;2.35;;;2.10;;
65706;SDS011;52423;43.512;5.220;2023-12-20T09:00:43;0.98;;;0.50;;
65706;SDS011;52423;43.512;5.220;2023-12-20T09:03:10;0.90;;;0.68;;
65706;SDS011;52423;43.512;5.220;2023-12-20T09:05:35;0.32;;;0.25;;
65706;SDS011;52423;43.512;5.220;2023-12-20T09:08:01;1.30;;;1.25;;
65706;SDS011;52423;43.512;5.220;2023-12-20T09:10:27;0.60;;;0.50;;
65706;SDS011;52423;43.512;5.220;2023-12-20T09:12:52;1.13;;;0.47;;
65706;SDS011;52423;43.512;5.220;2023-12-20T09:15:25;0.60;;;0.60;;
65706;SDS011;52423;43.512;5.220;2023-12-20T09:17:51;1.73;;;0.85;;
65706;SDS011;52423;43.512;5.220;2023-12-20T09:20:17;1.05;;;0.60;;
65706;SDS011;52423;43.512;5.220;2023-12-20T09:22:42;0.57;;;0.40;;
65706;SDS011;52423;43.512;5.220;2023-12-20T09:25:09;0.70;;;0.40;;
65706;SDS011;52423;43.512;5.220;2023-12-20T09:27:36;6.82;;;1.30;;
65706;SDS011;52423;43.512;5.220;2023-12-20T09:30:01;2.35;;;1.10;;
65706;SDS011;52423;43.512;5.220;2023-12-20T09:32:27;0.73;;;0.73;;
65706;SDS011;52423;43.512;5.220;2023-12-20T09:34:54;1.35;;;0.75;;
65706;SDS011;52423;43.512;5.220;2023-12-20T09:37:20;1.00;;;0.30;;
65706;SDS011;52423;43.512;5.220;2023-12-20T09:39:45;0.70;;;0.70;;
65706;SDS011;52423;43.512;5.220;2023-12-20T09:42:11;1.35;;;0.73;;
65706;SDS011;52423;43.512;5.220;2023-12-20T09:44:41;0.82;;;0.50;;
65706;SDS011;52423;43.512;5.220;2023-12-20T09:47:07;0.70;;;0.47;;
65706;SDS011;52423;43.512;5.220;2023-12-20T09:49:33;2.15;;;0.55;;
65706;SDS011;52423;43.512;5.220;2023-12-20T09:51:59;1.80;;;1.00;;
65706;SDS011;52423;43.512;5.220;2023-12-20T09:54:25;2.17;;;1.17;;
65706;SDS011;52423;43.512;5.220;2023-12-20T09:56:53;1.58;;;0.60;;
65706;SDS011;52423;43.512;5.220;2023-12-20T09:59:19;2.22;;;2.13;;
65706;SDS011;52423;43.512;5.220;2023-12-20T10:01:44;0.55;;;0.55;;
65706;SDS011;52423;43.512;5.220;2023-12-20T10:04:10;2.03;;;0.80;;
65706;SDS011;52423;43.512;5.220;2023-12-20T10:06:38;1.08;;;0.90;;
65706;SDS011;52423;43.512;5.220;2023-12-20T10:09:05;2.65;;;1.00;;
65706;SDS011;52423;43.512;5.220;2023-12-20T10:11:30;4.65;;;1.25;;
65706;SDS011;52423;43.512;5.220;2023-12-20T10:13:59;1.30;;;0.60;;
65706;SDS011;52423;43.512;5.220;2023-12-20T10:16:28;1.42;;;1.10;;
65706;SDS011;52423;43.512;5.220;2023-12-20T10:18:54;0.98;;;0.82;;
65706;SDS011;52423;43.512;5.220;2023-12-20T10:21:20;1.95;;;0.60;;
65706;SDS011;52423;43.512;5.220;2023-12-20T10:23:46;1.20;;;0.77;;
65706;SDS011;52423;43.512;5.220;2023-12-20T10:26:21;1.60;;;0.95;;
65706;SDS011;52423;43.512;5.220;2023-12-20T10:28:51;1.88;;;0.82;;
65706;SDS011;52423;43.512;5.220;2023-12-20T10:31:27;1.52;;;0.93;;
65706;SDS011;52423;43.512;5.220;2023-12-20T10:33:55;1.42;;;0.55;;
65706;SDS011;52423;43.512;5.220;2023-12-20T10:36:33;2.20;;;1.08;;
65706;SDS011;52423;43.512;5.220;2023-12-20T10:38:59;0.80;;;0.57;;
65706;SDS011;52423;43.512;5.220;2023-12-20T10:41:27;2.50;;;0.70;;
65706;SDS011;52423;43.512;5.220;2023-12-20T10:43:59;1.10;;;0.68;;
65706;SDS011;52423;43.512;5.220;2023-12-20T10:46:26;1.83;;;1.23;;
65706;SDS011;52423;43.512;5.220;2023-12-20T10:48:53;1.73;;;1.30;;
65706;SDS011;52423;43.512;5.220;2023-12-20T10:51:19;1.70;;;0.93;;
65706;SDS011;52423;43.512;5.220;2023-12-20T10:53:47;1.38;;;0.88;;
65706;SDS011;52423;43.512;5.220;2023-12-20T10:56:15;0.73;;;0.73;;
65706;SDS011;52423;43.512;5.220;2023-12-20T10:58:42;1.45;;;0.75;;
65706;SDS011;52423;43.512;5.220;2023-12-20T11:01:08;1.17;;;0.65;;
65706;SDS011;52423;43.512;5.220;2023-12-20T11:03:35;2.08;;;0.98;;
65706;SDS011;52423;43.512;5.220;2023-12-20T11:06:18;0.93;;;0.50;;
65706;SDS011;52423;43.512;5.220;2023-12-20T11:09:10;2.00;;;1.90;;
65706;SDS011;52423;43.512;5.220;2023-12-20T11:14:07;0.75;;;0.57;;
65706;SDS011;52423;43.512;5.220;2023-12-20T11:16:37;0.90;;;0.38;;
65706;SDS011;52423;43.512;5.220;2023-12-20T11:19:06;1.73;;;1.40;;
65706;SDS011;52423;43.512;5.220;2023-12-20T11:21:31;0.52;;;0.45;;
65706;SDS011;52423;43.512;5.220;2023-12-20T11:23:57;0.70;;;0.60;;
65706;SDS011;52423;43.512;5.220;2023-12-20T11:26:26;1.42;;;1.33;;
65706;SDS011;52423;43.512;5.220;2023-12-20T11:31:55;3.72;;;1.45;;
65706;SDS011;52423;43.512;5.220;2023-12-20T11:34:21;1.13;;;0.95;;
65706;SDS011;52423;43.512;5.220;2023-12-20T11:36:46;2.10;;;0.80;;
65706;SDS011;52423;43.512;5.220;2023-12-20T11:39:12;1.55;;;0.70;;
65706;SDS011;52423;43.512;5.220;2023-12-20T11:41:45;1.25;;;1.15;;
65706;SDS011;52423;43.512;5.220;2023-12-20T11:44:11;1.10;;;0.68;;
65706;SDS011;52423;43.512;5.220;2023-12-20T11:46:37;0.73;;;0.60;;
65706;SDS011;52423;43.512;5.220;2023-12-20T11:49:02;1.08;;;0.65;;
65706;SDS011;52423;43.512;5.220;2023-12-20T11:51:28;1.50;;;0.65;;
65706;SDS011;52423;43.512;5.220;2023-12-20T11:53:53;0.55;;;0.50;;
65706;SDS011;52423;43.512;5.220;2023-12-20T11:56:18;1.10;;;0.43;;
65706;SDS011;52423;43.512;5.220;2023-12-20T11:58:44;2.88;;;0.70;;
65706;SDS011;52423;43.512;5.220;2023-12-20T12:01:09;1.33;;;0.82;;
65706;SDS011;52423;43.512;5.220;2023-12-20T12:03:35;1.33;;;0.60;;
65706;SDS011;52423;43.512;5.220;2023-12-20T12:06:01;3.83;;;1.25;;
65706;SDS011;52423;43.512;5.220;2023-12-20T12:08:29;0.55;;;0.40;;
65706;SDS011;52423;43.512;5.220;2023-12-20T12:10:54;1.27;;;0.57;;
65706;SDS011;52423;43.512;5.220;2023-12-20T12:13:20;1.13;;;0.98;;
65706;SDS011;52423;43.512;5.220;2023-12-20T12:15:45;1.77;;;0.85;;
65706;SDS011;52423;43.512;5.220;2023-12-20T12:18:15;1.55;;;1.45;;
65706;SDS011;52423;43.512;5.220;2023-12-20T12:20:41;0.98;;;0.85;;
65706;SDS011;52423;43.512;5.220;2023-12-20T12:23:06;2.10;;;0.75;;
65706;SDS011;52423;43.512;5.220;2023-12-20T12:25:32;1.10;;;0.98;;
65706;SDS011;52423;43.512;5.220;2023-12-20T12:28:00;1.40;;;0.32;;
65706;SDS011;52423;43.512;5.220;2023-12-20T12:30:26;1.95;;;1.00;;
65706;SDS011;52423;43.512;5.220;2023-12-20T12:32:52;0.93;;;0.55;;
65706;SDS011;52423;43.512;5.220;2023-12-20T12:35:18;0.98;;;0.98;;
65706;SDS011;52423;43.512;5.220;2023-12-20T12:37:44;1.65;;;1.10;;
65706;SDS011;52423;43.512;5.220;2023-12-20T12:40:11;1.13;;;1.02;;
65706;SDS011;52423;43.512;5.220;2023-12-20T12:42:38;0.85;;;0.85;;
65706;SDS011;52423;43.512;5.220;2023-12-20T12:45:03;0.60;;;0.30;;
65706;SDS011;52423;43.512;5.220;2023-12-20T12:47:29;0.50;;;0.38;;
65706;SDS011;52423;43.512;5.220;2023-12-20T12:49:55;0.80;;;0.75;;
65706;SDS011;52423;43.512;5.220;2023-12-20T12:52:21;0.68;;;0.60;;
65706;SDS011;52423;43.512;5.220;2023-12-20T12:54:46;1.05;;;0.73;;
65706;SDS011;52423;43.512;5.220;2023-12-20T12:57:13;0.90;;;0.68;;
65706;SDS011;52423;43.512;5.220;2023-12-20T12:59:39;1.70;;;0.70;;
65706;SDS011;52423;43.512;5.220;2023-12-20T13:02:05;0.88;;;0.73;;
65706;SDS011;52423;43.512;5.220;2023-12-20T13:04:31;1.13;;;0.77;;
65706;SDS011;52423;43.512;5.220;2023-12-20T13:06:56;1.85;;;1.27;;
65706;SDS011;52423;43.512;5.220;2023-12-20T13:09:22;1.42;;;0.93;;
65706;SDS011;52423;43.512;5.220;2023-12-20T13:11:48;1.08;;;0.60;;
65706;SDS011;52423;43.512;5.220;2023-12-20T13:14:13;0.60;;;0.35;;
65706;SDS011;52423;43.512;5.220;2023-12-20T13:16:40;1.92;;;0.93;;
65706;SDS011;52423;43.512;5.220;2023-12-20T13:19:06;1.27;;;0.63;;
65706;SDS011;52423;43.512;5.220;2023-12-20T13:21:32;0.85;;;0.57;;
65706;SDS011;52423;43.512;5.220;2023-12-20T13:23:57;1.25;;;1.15;;
65706;SDS011;52423;43.512;5.220;2023-12-20T13:26:23;1.25;;;0.45;;
65706;SDS011;52423;43.512;5.220;2023-12-20T13:28:48;3.22;;;3.13;;
65706;SDS011;52423;43.512;5.220;2023-12-20T13:31:14;1.10;;;0.52;;
65706;SDS011;52423;43.512;5.220;2023-12-20T13:33:39;0.75;;;0.65;;
65706;SDS011;52423;43.512;5.220;2023-12-20T13:36:05;1.60;;;0.88;;
65706;SDS011;52423;43.512;5.220;2023-12-20T13:38:31;0.60;;;0.35;;
65706;SDS011;52423;43.512;5.220;2023-12-20T13:40:56;1.20;;;0.47;;
65706;SDS011;52423;43.512;5.220;2023-12-20T13:43:23;1.23;;;0.50;;
65706;SDS011;52423;43.512;5.220;2023-12-20T13:45:49;1.20;;;1.02;;
65706;SDS011;52423;43.512;5.220;2023-12-20T13:48:15;0.77;;;0.57;;
65706;SDS011;52423;43.512;5.220;2023-12-20T13:50:41;1.02;;;0.40;;
65706;SDS011;52423;43.512;5.220;2023-12-20T13:53:06;1.70;;;0.77;;
65706;SDS011;52423;43.512;5.220;2023-12-20T13:55:32;3.33;;;0.68;;
65706;SDS011;52423;43.512;5.220;2023-12-20T13:57:57;0.88;;;0.80;;
65706;SDS011;52423;43.512;5.220;2023-12-20T14:00:23;2.58;;;1.67;;
65706;SDS011;52423;43.512;5.220;2023-12-20T14:02:48;1.15;;;1.05;;
65706;SDS011;52423;43.512;5.220;2023-12-20T14:05:15;1.38;;;0.30;;
65706;SDS011;52423;43.512;5.220;2023-12-20T14:07:42;1.38;;;0.55;;
65706;SDS011;52423;43.512;5.220;2023-12-20T14:10:12;1.25;;;1.10;;
65706;SDS011;52423;43.512;5.220;2023-12-20T14:12:38;0.98;;;0.82;;
65706;SDS011;52423;43.512;5.220;2023-12-20T14:15:04;0.85;;;0.55;;
65706;SDS011;52423;43.512;5.220;2023-12-20T14:17:34;1.00;;;0.70;;
65706;SDS011;52423;43.512;5.220;2023-12-20T14:19:59;1.98;;;0.93;;
65706;SDS011;52423;43.512;5.220;2023-12-20T14:22:25;1.05;;;0.65;;
65706;SDS011;52423;43.512;5.220;2023-12-20T14:24:50;2.58;;;0.70;;
65706;SDS011;52423;43.512;5.220;2023-12-20T14:27:16;1.15;;;0.65;;
65706;SDS011;52423;43.512;5.220;2023-12-20T14:29:41;1.20;;;0.60;;
65706;SDS011;52423;43.512;5.220;2023-12-20T14:32:07;1.02;;;0.60;;
65706;SDS011;52423;43.512;5.220;2023-12-20T14:34:32;1.77;;;1.35;;
65706;SDS011;52423;43.512;5.220;2023-12-20T14:36:57;2.05;;;0.93;;
65706;SDS011;52423;43.512;5.220;2023-12-20T14:39:23;1.10;;;1.00;;
65706;SDS011;52423;43.512;5.220;2023-12-20T14:41:48;1.65;;;1.42;;
65706;SDS011;52423;43.512;5.220;2023-12-20T14:44:14;3.10;;;1.48;;
65706;SDS011;52423;43.512;5.220;2023-12-20T14:46:39;0.70;;;0.63;;
65706;SDS011;52423;43.512;5.220;2023-12-20T14:49:05;1.52;;;0.93;;